sensor_id;sensor_type;location;lat;lon;timestamp;pressure;altitude;pressure_sealevel;temperature
68127;BMP180;54931;52.098;21.006;2022-08-04T00:05:48;100604.40;;;18.90
68127;BMP180;54931;52.098;21.006;2022-08-04T00:10:55;100610.80;;;18.82
68127;BMP180;54931;52.098;21.006;2022-08-04T00:13:30;100610.00;;;18.80
68127;BMP180;54931;52.098;21.006;2022-08-04T00:16:06;100609.80;;;18.80
68127;BMP180;54931;52.098;21.006;2022-08-04T00:18:58;100612.20;;;18.70
68127;BMP180;54931;52.098;21.006;2022-08-04T00:21:30;100607.40;;;18.60
68127;BMP180;54931;52.098;21.006;2022-08-04T00:24:01;100610.00;;;18.60
68127;BMP180;54931;52.098;21.006;2022-08-04T00:26:29;100608.40;;;18.60
68127;BMP180;54931;52.098;21.006;2022-08-04T00:28:58;100608.60;;;18.60
68127;BMP180;54931;52.098;21.006;2022-08-04T00:31:27;100607.60;;;18.60
68127;BMP180;54931;52.098;21.006;2022-08-04T00:33:55;100608.40;;;18.60
68127;BMP180;54931;52.098;21.006;2022-08-04T00:36:23;100607.20;;;18.50
68127;BMP180;54931;52.098;21.006;2022-08-04T00:38:54;100608.00;;;18.40
68127;BMP180;54931;52.098;21.006;2022-08-04T00:50:26;100616.00;;;18.30
68127;BMP180;54931;52.098;21.006;2022-08-04T00:53:05;100614.00;;;18.20
68127;BMP180;54931;52.098;21.006;2022-08-04T00:55:51;100612.40;;;18.20
68127;BMP180;54931;52.098;21.006;2022-08-04T01:01:15;100615.60;;;18.20
68127;BMP180;54931;52.098;21.006;2022-08-04T01:08:15;100609.60;;;18.10
68127;BMP180;54931;52.098;21.006;2022-08-04T01:13:25;100615.40;;;18.02
68127;BMP180;54931;52.098;21.006;2022-08-04T01:16:05;100617.60;;;18.10
68127;BMP180;54931;52.098;21.006;2022-08-04T01:28:13;100621.60;;;18.00
68127;BMP180;54931;52.098;21.006;2022-08-04T01:30:54;100621.40;;;18.00
68127;BMP180;54931;52.098;21.006;2022-08-04T01:33:28;100618.80;;;18.00
68127;BMP180;54931;52.098;21.006;2022-08-04T01:36:04;100620.60;;;18.00
68127;BMP180;54931;52.098;21.006;2022-08-04T01:38:40;100623.60;;;17.90
68127;BMP180;54931;52.098;21.006;2022-08-04T01:41:13;100627.00;;;17.80
68127;BMP180;54931;52.098;21.006;2022-08-04T01:43:43;100625.80;;;17.70
68127;BMP180;54931;52.098;21.006;2022-08-04T01:46:14;100628.00;;;17.70
68127;BMP180;54931;52.098;21.006;2022-08-04T01:48:45;100625.40;;;17.78
68127;BMP180;54931;52.098;21.006;2022-08-04T01:51:13;100624.40;;;17.70
68127;BMP180;54931;52.098;21.006;2022-08-04T01:53:43;100624.80;;;17.62
68127;BMP180;54931;52.098;21.006;2022-08-04T01:56:11;100620.60;;;17.60
68127;BMP180;54931;52.098;21.006;2022-08-04T01:58:40;100620.40;;;17.52
68127;BMP180;54931;52.098;21.006;2022-08-04T02:01:11;100622.20;;;17.56
68127;BMP180;54931;52.098;21.006;2022-08-04T02:03:43;100624.80;;;17.60
68127;BMP180;54931;52.098;21.006;2022-08-04T02:06:37;100619.40;;;17.60
68127;BMP180;54931;52.098;21.006;2022-08-04T02:09:46;100622.00;;;17.60
68127;BMP180;54931;52.098;21.006;2022-08-04T02:16:01;100614.40;;;17.50
68127;BMP180;54931;52.098;21.006;2022-08-04T02:21:33;100608.40;;;17.50
68127;BMP180;54931;52.098;21.006;2022-08-04T02:24:07;100604.80;;;17.54
68127;BMP180;54931;52.098;21.006;2022-08-04T02:26:41;100602.40;;;17.60
68127;BMP180;54931;52.098;21.006;2022-08-04T02:29:39;100602.00;;;17.60
68127;BMP180;54931;52.098;21.006;2022-08-04T02:32:25;100604.20;;;17.54
68127;BMP180;54931;52.098;21.006;2022-08-04T02:35:04;100601.40;;;17.50
68127;BMP180;54931;52.098;21.006;2022-08-04T02:37:33;100602.20;;;17.50
68127;BMP180;54931;52.098;21.006;2022-08-04T02:40:05;100602.00;;;17.50
68127;BMP180;54931;52.098;21.006;2022-08-04T02:42:33;100599.40;;;17.50
68127;BMP180;54931;52.098;21.006;2022-08-04T02:45:01;100592.80;;;17.60
68127;BMP180;54931;52.098;21.006;2022-08-04T02:47:30;100596.00;;;17.50
68127;BMP180;54931;52.098;21.006;2022-08-04T02:49:58;100592.40;;;17.44
68127;BMP180;54931;52.098;21.006;2022-08-04T02:52:25;100594.00;;;17.40
68127;BMP180;54931;52.098;21.006;2022-08-04T02:54:55;100594.60;;;17.38
68127;BMP180;54931;52.098;21.006;2022-08-04T02:57:29;100598.00;;;17.40
68127;BMP180;54931;52.098;21.006;2022-08-04T03:00:12;100599.00;;;17.30
68127;BMP180;54931;52.098;21.006;2022-08-04T03:33:41;100610.40;;;17.00
68127;BMP180;54931;52.098;21.006;2022-08-04T03:36:54;100614.80;;;17.00
68127;BMP180;54931;52.098;21.006;2022-08-04T03:46:30;100619.60;;;17.00
68127;BMP180;54931;52.098;21.006;2022-08-04T04:07:54;100628.00;;;17.70
68127;BMP180;54931;52.098;21.006;2022-08-04T04:57:17;100644.40;;;21.24
68127;BMP180;54931;52.098;21.006;2022-08-04T05:00:11;100648.00;;;21.48
68127;BMP180;54931;52.098;21.006;2022-08-04T05:14:40;100657.60;;;22.62
68127;BMP180;54931;52.098;21.006;2022-08-04T05:17:26;100658.80;;;22.70
68127;BMP180;54931;52.098;21.006;2022-08-04T05:20:07;100656.60;;;22.70
68127;BMP180;54931;52.098;21.006;2022-08-04T05:22:44;100658.00;;;22.78
68127;BMP180;54931;52.098;21.006;2022-08-04T05:28:17;100661.60;;;23.00
68127;BMP180;54931;52.098;21.006;2022-08-04T05:31:01;100666.40;;;23.14
68127;BMP180;54931;52.098;21.006;2022-08-04T05:33:46;100664.00;;;23.36
68127;BMP180;54931;52.098;21.006;2022-08-04T05:36:20;100666.00;;;23.60
68127;BMP180;54931;52.098;21.006;2022-08-04T05:38:53;100669.00;;;23.84
68127;BMP180;54931;52.098;21.006;2022-08-04T05:41:21;100666.60;;;24.10
68127;BMP180;54931;52.098;21.006;2022-08-04T05:43:49;100667.80;;;24.20
68127;BMP180;54931;52.098;21.006;2022-08-04T05:46:18;100671.60;;;24.10
68127;BMP180;54931;52.098;21.006;2022-08-04T05:48:47;100672.20;;;24.08
68127;BMP180;54931;52.098;21.006;2022-08-04T05:51:15;100674.60;;;24.20
68127;BMP180;54931;52.098;21.006;2022-08-04T05:53:44;100676.80;;;24.40
68127;BMP180;54931;52.098;21.006;2022-08-04T05:56:14;100679.60;;;24.66
68127;BMP180;54931;52.098;21.006;2022-08-04T05:58:44;100682.60;;;24.94
68127;BMP180;54931;52.098;21.006;2022-08-04T06:01:15;100687.20;;;25.00
68127;BMP180;54931;52.098;21.006;2022-08-04T06:03:45;100690.40;;;25.10
68127;BMP180;54931;52.098;21.006;2022-08-04T06:06:17;100694.00;;;25.20
68127;BMP180;54931;52.098;21.006;2022-08-04T06:08:46;100691.20;;;25.32
68127;BMP180;54931;52.098;21.006;2022-08-04T06:11:15;100688.40;;;25.50
68127;BMP180;54931;52.098;21.006;2022-08-04T06:13:50;100693.80;;;25.70
68127;BMP180;54931;52.098;21.006;2022-08-04T06:16:22;100699.20;;;25.78
68127;BMP180;54931;52.098;21.006;2022-08-04T06:18:52;100696.00;;;25.66
68127;BMP180;54931;52.098;21.006;2022-08-04T06:21:22;100697.00;;;25.80
68127;BMP180;54931;52.098;21.006;2022-08-04T06:23:53;100694.40;;;25.80
68127;BMP180;54931;52.098;21.006;2022-08-04T06:26:24;100689.00;;;25.92
68127;BMP180;54931;52.098;21.006;2022-08-04T06:28:52;100693.00;;;26.08
68127;BMP180;54931;52.098;21.006;2022-08-04T06:31:22;100692.40;;;26.36
68127;BMP180;54931;52.098;21.006;2022-08-04T06:34:20;100701.60;;;26.70
68127;BMP180;54931;52.098;21.006;2022-08-04T06:36:48;100694.40;;;26.80
68127;BMP180;54931;52.098;21.006;2022-08-04T06:39:16;100697.00;;;26.80
68127;BMP180;54931;52.098;21.006;2022-08-04T06:41:45;100702.40;;;26.90
68127;BMP180;54931;52.098;21.006;2022-08-04T06:44:14;100702.20;;;27.10
68127;BMP180;54931;52.098;21.006;2022-08-04T06:46:42;100706.40;;;27.30
68127;BMP180;54931;52.098;21.006;2022-08-04T06:49:11;100705.40;;;27.40
68127;BMP180;54931;52.098;21.006;2022-08-04T06:51:41;100705.80;;;27.40
68127;BMP180;54931;52.098;21.006;2022-08-04T06:54:11;100704.80;;;27.56
68127;BMP180;54931;52.098;21.006;2022-08-04T06:56:39;100705.40;;;27.66
68127;BMP180;54931;52.098;21.006;2022-08-04T06:59:13;100705.20;;;27.78
68127;BMP180;54931;52.098;21.006;2022-08-04T07:01:44;100707.00;;;27.90
68127;BMP180;54931;52.098;21.006;2022-08-04T07:04:13;100705.20;;;27.98
68127;BMP180;54931;52.098;21.006;2022-08-04T07:06:42;100703.60;;;28.06
68127;BMP180;54931;52.098;21.006;2022-08-04T07:09:10;100703.20;;;28.00
68127;BMP180;54931;52.098;21.006;2022-08-04T07:11:38;100700.80;;;28.08
68127;BMP180;54931;52.098;21.006;2022-08-04T07:14:06;100694.40;;;28.20
68127;BMP180;54931;52.098;21.006;2022-08-04T07:16:35;100695.00;;;28.10
68127;BMP180;54931;52.098;21.006;2022-08-04T07:19:04;100698.40;;;28.20
68127;BMP180;54931;52.098;21.006;2022-08-04T07:21:34;100700.20;;;28.30
68127;BMP180;54931;52.098;21.006;2022-08-04T07:24:03;100698.60;;;28.46
68127;BMP180;54931;52.098;21.006;2022-08-04T07:26:31;100700.00;;;28.56
68127;BMP180;54931;52.098;21.006;2022-08-04T07:28:59;100697.00;;;28.70
68127;BMP180;54931;52.098;21.006;2022-08-04T07:31:30;100700.80;;;28.80
68127;BMP180;54931;52.098;21.006;2022-08-04T07:33:59;100705.80;;;28.92
68127;BMP180;54931;52.098;21.006;2022-08-04T07:36:27;100705.20;;;29.10
68127;BMP180;54931;52.098;21.006;2022-08-04T07:38:54;100703.20;;;29.20
68127;BMP180;54931;52.098;21.006;2022-08-04T07:41:24;100707.00;;;29.14
68127;BMP180;54931;52.098;21.006;2022-08-04T07:43:52;100715.80;;;29.20
68127;BMP180;54931;52.098;21.006;2022-08-04T07:46:21;100713.60;;;29.30
68127;BMP180;54931;52.098;21.006;2022-08-04T07:48:49;100716.80;;;29.36
68127;BMP180;54931;52.098;21.006;2022-08-04T07:51:17;100713.00;;;29.40
68127;BMP180;54931;52.098;21.006;2022-08-04T07:53:47;100712.40;;;29.30
68127;BMP180;54931;52.098;21.006;2022-08-04T07:56:15;100712.60;;;29.18
68127;BMP180;54931;52.098;21.006;2022-08-04T07:58:43;100707.60;;;29.02
68127;BMP180;54931;52.098;21.006;2022-08-04T08:01:12;100709.60;;;28.98
68127;BMP180;54931;52.098;21.006;2022-08-04T08:03:40;100710.60;;;28.90
68127;BMP180;54931;52.098;21.006;2022-08-04T08:06:09;100706.40;;;28.94
68127;BMP180;54931;52.098;21.006;2022-08-04T08:08:40;100705.60;;;28.90
68127;BMP180;54931;52.098;21.006;2022-08-04T08:11:07;100704.00;;;29.08
68127;BMP180;54931;52.098;21.006;2022-08-04T08:13:36;100706.00;;;29.20
68127;BMP180;54931;52.098;21.006;2022-08-04T08:16:05;100699.20;;;29.22
68127;BMP180;54931;52.098;21.006;2022-08-04T08:18:32;100706.80;;;29.40
68127;BMP180;54931;52.098;21.006;2022-08-04T08:21:01;100705.40;;;29.58
68127;BMP180;54931;52.098;21.006;2022-08-04T08:23:31;100703.80;;;29.80
68127;BMP180;54931;52.098;21.006;2022-08-04T08:26:00;100708.00;;;30.00
68127;BMP180;54931;52.098;21.006;2022-08-04T08:28:30;100712.40;;;29.90
68127;BMP180;54931;52.098;21.006;2022-08-04T08:31:00;100708.60;;;29.90
68127;BMP180;54931;52.098;21.006;2022-08-04T08:33:29;100709.20;;;29.90
68127;BMP180;54931;52.098;21.006;2022-08-04T08:36:41;100717.80;;;30.00
68127;BMP180;54931;52.098;21.006;2022-08-04T08:43:30;100716.00;;;29.48
68127;BMP180;54931;52.098;21.006;2022-08-04T08:52:25;100722.60;;;30.00
68127;BMP180;54931;52.098;21.006;2022-08-04T08:55:13;100717.60;;;29.92
68127;BMP180;54931;52.098;21.006;2022-08-04T08:58:22;100717.60;;;29.92
68127;BMP180;54931;52.098;21.006;2022-08-04T09:04:31;100716.60;;;30.10
68127;BMP180;54931;52.098;21.006;2022-08-04T09:10:31;100718.00;;;30.70
68127;BMP180;54931;52.098;21.006;2022-08-04T09:13:20;100711.40;;;30.78
68127;BMP180;54931;52.098;21.006;2022-08-04T09:16:10;100714.60;;;30.80
68127;BMP180;54931;52.098;21.006;2022-08-04T09:18:59;100708.80;;;31.02
68127;BMP180;54931;52.098;21.006;2022-08-04T09:21:38;100707.80;;;31.16
68127;BMP180;54931;52.098;21.006;2022-08-04T09:24:46;100706.40;;;31.02
68127;BMP180;54931;52.098;21.006;2022-08-04T09:30:11;100708.00;;;31.12
68127;BMP180;54931;52.098;21.006;2022-08-04T09:33:17;100705.20;;;31.00
68127;BMP180;54931;52.098;21.006;2022-08-04T09:39:39;100701.20;;;31.20
68127;BMP180;54931;52.098;21.006;2022-08-04T09:42:27;100705.60;;;31.30
68127;BMP180;54931;52.098;21.006;2022-08-04T09:45:17;100703.80;;;31.34
68127;BMP180;54931;52.098;21.006;2022-08-04T09:48:24;100706.00;;;31.40
68127;BMP180;54931;52.098;21.006;2022-08-04T09:50:58;100707.80;;;31.30
68127;BMP180;54931;52.098;21.006;2022-08-04T10:00:05;100701.60;;;31.30
68127;BMP180;54931;52.098;21.006;2022-08-04T10:02:47;100700.40;;;31.30
68127;BMP180;54931;52.098;21.006;2022-08-04T10:05:25;100702.60;;;31.34
68127;BMP180;54931;52.098;21.006;2022-08-04T10:11:06;100706.20;;;31.20
68127;BMP180;54931;52.098;21.006;2022-08-04T10:14:09;100703.60;;;31.10
68127;BMP180;54931;52.098;21.006;2022-08-04T10:19:41;100698.60;;;30.98
68127;BMP180;54931;52.098;21.006;2022-08-04T10:22:20;100698.80;;;31.06
68127;BMP180;54931;52.098;21.006;2022-08-04T10:28:05;100697.80;;;31.00
68127;BMP180;54931;52.098;21.006;2022-08-04T10:30:39;100689.80;;;31.02
68127;BMP180;54931;52.098;21.006;2022-08-04T10:33:23;100686.80;;;31.10
68127;BMP180;54931;52.098;21.006;2022-08-04T10:36:05;100689.00;;;31.20
68127;BMP180;54931;52.098;21.006;2022-08-04T10:38:45;100684.80;;;31.20
68127;BMP180;54931;52.098;21.006;2022-08-04T10:45:22;100680.00;;;31.30
68127;BMP180;54931;52.098;21.006;2022-08-04T10:48:05;100676.20;;;31.40
68127;BMP180;54931;52.098;21.006;2022-08-04T10:50:36;100676.80;;;31.50
68127;BMP180;54931;52.098;21.006;2022-08-04T10:53:18;100671.40;;;31.50
68127;BMP180;54931;52.098;21.006;2022-08-04T10:56:02;100666.20;;;31.48
68127;BMP180;54931;52.098;21.006;2022-08-04T10:58:45;100666.60;;;31.40
68127;BMP180;54931;52.098;21.006;2022-08-04T11:01:24;100664.40;;;31.48
68127;BMP180;54931;52.098;21.006;2022-08-04T11:04:04;100669.40;;;31.22
68127;BMP180;54931;52.098;21.006;2022-08-04T11:06:36;100668.20;;;31.40
68127;BMP180;54931;52.098;21.006;2022-08-04T11:09:05;100663.40;;;31.30
68127;BMP180;54931;52.098;21.006;2022-08-04T11:11:46;100666.80;;;31.14
68127;BMP180;54931;52.098;21.006;2022-08-04T11:14:26;100662.40;;;31.00
68127;BMP180;54931;52.098;21.006;2022-08-04T11:17:04;100665.40;;;31.10
68127;BMP180;54931;52.098;21.006;2022-08-04T11:19:43;100666.00;;;31.00
68127;BMP180;54931;52.098;21.006;2022-08-04T11:25:11;100657.60;;;30.70
68127;BMP180;54931;52.098;21.006;2022-08-04T11:28:11;100669.80;;;30.42
68127;BMP180;54931;52.098;21.006;2022-08-04T11:31:27;100662.60;;;30.10
68127;BMP180;54931;52.098;21.006;2022-08-04T11:34:27;100657.20;;;30.00
68127;BMP180;54931;52.098;21.006;2022-08-04T11:37:22;100661.00;;;30.00
68127;BMP180;54931;52.098;21.006;2022-08-04T11:40:06;100656.20;;;29.90
68127;BMP180;54931;52.098;21.006;2022-08-04T11:42:40;100653.00;;;29.90
68127;BMP180;54931;52.098;21.006;2022-08-04T11:45:31;100652.40;;;29.84
68127;BMP180;54931;52.098;21.006;2022-08-04T11:48:52;100656.40;;;29.60
68127;BMP180;54931;52.098;21.006;2022-08-04T11:51:25;100653.00;;;29.58
68127;BMP180;54931;52.098;21.006;2022-08-04T11:53:54;100651.80;;;29.52
68127;BMP180;54931;52.098;21.006;2022-08-04T11:56:22;100655.80;;;29.58
68127;BMP180;54931;52.098;21.006;2022-08-04T11:58:50;100651.80;;;29.60
68127;BMP180;54931;52.098;21.006;2022-08-04T12:04:23;100640.80;;;29.60
68127;BMP180;54931;52.098;21.006;2022-08-04T12:07:13;100644.80;;;29.50
68127;BMP180;54931;52.098;21.006;2022-08-04T12:10:04;100647.80;;;29.30
68127;BMP180;54931;52.098;21.006;2022-08-04T12:18:18;100639.20;;;29.10
68127;BMP180;54931;52.098;21.006;2022-08-04T12:20:58;100637.20;;;29.20
68127;BMP180;54931;52.098;21.006;2022-08-04T12:23:38;100638.80;;;29.20
68127;BMP180;54931;52.098;21.006;2022-08-04T12:26:14;100632.60;;;29.20
68127;BMP180;54931;52.098;21.006;2022-08-04T12:28:49;100633.80;;;29.20
68127;BMP180;54931;52.098;21.006;2022-08-04T12:31:59;100635.60;;;29.20
68127;BMP180;54931;52.098;21.006;2022-08-04T12:34:51;100634.60;;;29.20
68127;BMP180;54931;52.098;21.006;2022-08-04T12:37:54;100634.20;;;29.20
68127;BMP180;54931;52.098;21.006;2022-08-04T12:40:50;100627.60;;;29.18
68127;BMP180;54931;52.098;21.006;2022-08-04T12:43:40;100623.60;;;29.20
68127;BMP180;54931;52.098;21.006;2022-08-04T12:46:25;100624.40;;;29.30
68127;BMP180;54931;52.098;21.006;2022-08-04T12:49:02;100616.20;;;29.12
68127;BMP180;54931;52.098;21.006;2022-08-04T12:51:38;100615.80;;;29.00
68127;BMP180;54931;52.098;21.006;2022-08-04T12:54:08;100612.60;;;29.00
68127;BMP180;54931;52.098;21.006;2022-08-04T12:56:38;100612.60;;;29.00
68127;BMP180;54931;52.098;21.006;2022-08-04T12:59:09;100603.00;;;29.10
68127;BMP180;54931;52.098;21.006;2022-08-04T13:01:39;100607.80;;;29.10
68127;BMP180;54931;52.098;21.006;2022-08-04T13:04:18;100604.60;;;29.20
68127;BMP180;54931;52.098;21.006;2022-08-04T13:07:09;100602.00;;;29.28
68127;BMP180;54931;52.098;21.006;2022-08-04T13:09:40;100605.00;;;29.40
68127;BMP180;54931;52.098;21.006;2022-08-04T13:12:23;100606.20;;;29.40
68127;BMP180;54931;52.098;21.006;2022-08-04T13:15:08;100599.80;;;29.40
68127;BMP180;54931;52.098;21.006;2022-08-04T13:17:54;100599.00;;;29.58
68127;BMP180;54931;52.098;21.006;2022-08-04T13:20:34;100596.80;;;29.60
68127;BMP180;54931;52.098;21.006;2022-08-04T13:23:14;100596.80;;;29.50
68127;BMP180;54931;52.098;21.006;2022-08-04T13:25:47;100593.00;;;29.40
68127;BMP180;54931;52.098;21.006;2022-08-04T13:28:20;100592.00;;;29.42
68127;BMP180;54931;52.098;21.006;2022-08-04T13:31:22;100583.40;;;29.50
68127;BMP180;54931;52.098;21.006;2022-08-04T13:34:02;100584.20;;;29.50
68127;BMP180;54931;52.098;21.006;2022-08-04T13:36:32;100580.60;;;29.50
68127;BMP180;54931;52.098;21.006;2022-08-04T13:39:21;100585.20;;;29.70
68127;BMP180;54931;52.098;21.006;2022-08-04T13:41:54;100585.20;;;29.68
68127;BMP180;54931;52.098;21.006;2022-08-04T13:44:28;100582.80;;;29.62
68127;BMP180;54931;52.098;21.006;2022-08-04T13:47:06;100581.20;;;29.70
68127;BMP180;54931;52.098;21.006;2022-08-04T13:49:34;100576.80;;;29.70
68127;BMP180;54931;52.098;21.006;2022-08-04T13:52:07;100574.20;;;29.70
68127;BMP180;54931;52.098;21.006;2022-08-04T13:54:41;100566.00;;;29.76
68127;BMP180;54931;52.098;21.006;2022-08-04T13:57:28;100567.60;;;29.80
68127;BMP180;54931;52.098;21.006;2022-08-04T14:00:06;100563.60;;;29.80
68127;BMP180;54931;52.098;21.006;2022-08-04T14:02:58;100559.40;;;29.80
68127;BMP180;54931;52.098;21.006;2022-08-04T14:05:28;100556.20;;;29.80
68127;BMP180;54931;52.098;21.006;2022-08-04T14:08:17;100554.20;;;29.80
68127;BMP180;54931;52.098;21.006;2022-08-04T14:10:55;100550.20;;;29.80
68127;BMP180;54931;52.098;21.006;2022-08-04T14:13:34;100551.20;;;29.78
68127;BMP180;54931;52.098;21.006;2022-08-04T14:16:20;100546.80;;;29.70
68127;BMP180;54931;52.098;21.006;2022-08-04T14:18:59;100553.00;;;29.60
68127;BMP180;54931;52.098;21.006;2022-08-04T14:21:27;100552.60;;;29.60
68127;BMP180;54931;52.098;21.006;2022-08-04T14:24:01;100547.60;;;29.60
68127;BMP180;54931;52.098;21.006;2022-08-04T14:26:32;100545.80;;;29.60
68127;BMP180;54931;52.098;21.006;2022-08-04T14:29:13;100546.00;;;29.68
68127;BMP180;54931;52.098;21.006;2022-08-04T14:31:41;100543.20;;;29.70
68127;BMP180;54931;52.098;21.006;2022-08-04T14:34:09;100544.20;;;29.70
68127;BMP180;54931;52.098;21.006;2022-08-04T14:36:41;100536.40;;;29.70
68127;BMP180;54931;52.098;21.006;2022-08-04T14:39:09;100539.40;;;29.70
68127;BMP180;54931;52.098;21.006;2022-08-04T14:41:48;100534.20;;;29.70
68127;BMP180;54931;52.098;21.006;2022-08-04T14:44:16;100532.20;;;29.72
68127;BMP180;54931;52.098;21.006;2022-08-04T14:46:52;100532.20;;;29.80
68127;BMP180;54931;52.098;21.006;2022-08-04T14:49:21;100538.60;;;30.00
68127;BMP180;54931;52.098;21.006;2022-08-04T14:51:59;100533.40;;;30.00
68127;BMP180;54931;52.098;21.006;2022-08-04T14:54:32;100534.80;;;30.00
68127;BMP180;54931;52.098;21.006;2022-08-04T14:57:06;100535.60;;;30.04
68127;BMP180;54931;52.098;21.006;2022-08-04T14:59:48;100533.20;;;30.06
68127;BMP180;54931;52.098;21.006;2022-08-04T15:02:16;100529.00;;;30.10
68127;BMP180;54931;52.098;21.006;2022-08-04T15:04:46;100522.80;;;30.20
68127;BMP180;54931;52.098;21.006;2022-08-04T15:07:15;100525.20;;;30.30
68127;BMP180;54931;52.098;21.006;2022-08-04T15:09:42;100529.40;;;30.40
68127;BMP180;54931;52.098;21.006;2022-08-04T15:12:10;100525.00;;;30.38
68127;BMP180;54931;52.098;21.006;2022-08-04T15:14:38;100523.40;;;30.70
68127;BMP180;54931;52.098;21.006;2022-08-04T15:17:07;100517.80;;;31.14
68127;BMP180;54931;52.098;21.006;2022-08-04T15:19:36;100515.40;;;31.50
68127;BMP180;54931;52.098;21.006;2022-08-04T15:22:04;100520.20;;;31.80
68127;BMP180;54931;52.098;21.006;2022-08-04T15:24:31;100518.60;;;32.18
68127;BMP180;54931;52.098;21.006;2022-08-04T15:27:01;100514.60;;;32.60
68127;BMP180;54931;52.098;21.006;2022-08-04T15:29:41;100509.40;;;33.10
68127;BMP180;54931;52.098;21.006;2022-08-04T15:32:14;100511.00;;;33.10
68127;BMP180;54931;52.098;21.006;2022-08-04T15:34:47;100512.20;;;33.14
68127;BMP180;54931;52.098;21.006;2022-08-04T15:37:24;100512.00;;;33.40
68127;BMP180;54931;52.098;21.006;2022-08-04T15:45:51;100511.40;;;34.20
68127;BMP180;54931;52.098;21.006;2022-08-04T15:53:28;100515.60;;;34.28
68127;BMP180;54931;52.098;21.006;2022-08-04T15:55:56;100517.60;;;34.38
68127;BMP180;54931;52.098;21.006;2022-08-04T15:58:24;100519.60;;;34.50
68127;BMP180;54931;52.098;21.006;2022-08-04T16:16:47;100512.20;;;35.10
68127;BMP180;54931;52.098;21.006;2022-08-04T16:21:58;100511.00;;;35.12
68127;BMP180;54931;52.098;21.006;2022-08-04T16:24:36;100511.40;;;35.14
68127;BMP180;54931;52.098;21.006;2022-08-04T16:27:06;100511.00;;;35.22
68127;BMP180;54931;52.098;21.006;2022-08-04T16:29:39;100508.00;;;35.10
68127;BMP180;54931;52.098;21.006;2022-08-04T16:32:21;100508.20;;;35.20
68127;BMP180;54931;52.098;21.006;2022-08-04T16:37:36;100504.60;;;35.26
68127;BMP180;54931;52.098;21.006;2022-08-04T16:43:08;100510.00;;;35.00
68127;BMP180;54931;52.098;21.006;2022-08-04T16:45:53;100505.00;;;34.80
68127;BMP180;54931;52.098;21.006;2022-08-04T16:48:30;100502.40;;;34.66
68127;BMP180;54931;52.098;21.006;2022-08-04T16:51:06;100500.20;;;34.50
68127;BMP180;54931;52.098;21.006;2022-08-04T16:53:38;100498.80;;;34.30
68127;BMP180;54931;52.098;21.006;2022-08-04T16:56:08;100500.40;;;34.30
68127;BMP180;54931;52.098;21.006;2022-08-04T16:58:36;100506.00;;;34.40
68127;BMP180;54931;52.098;21.006;2022-08-04T17:03:37;100506.00;;;34.10
68127;BMP180;54931;52.098;21.006;2022-08-04T17:06:13;100507.20;;;33.82
68127;BMP180;54931;52.098;21.006;2022-08-04T17:08:42;100506.20;;;33.80
68127;BMP180;54931;52.098;21.006;2022-08-04T17:11:12;100503.20;;;33.70
68127;BMP180;54931;52.098;21.006;2022-08-04T17:13:44;100498.20;;;33.50
68127;BMP180;54931;52.098;21.006;2022-08-04T17:16:16;100496.60;;;33.20
68127;BMP180;54931;52.098;21.006;2022-08-04T17:18:53;100496.60;;;33.10
68127;BMP180;54931;52.098;21.006;2022-08-04T17:21:33;100499.00;;;33.10
68127;BMP180;54931;52.098;21.006;2022-08-04T17:24:03;100495.80;;;33.20
68127;BMP180;54931;52.098;21.006;2022-08-04T17:26:36;100496.40;;;33.10
68127;BMP180;54931;52.098;21.006;2022-08-04T17:29:04;100502.60;;;32.90
68127;BMP180;54931;52.098;21.006;2022-08-04T17:31:34;100502.40;;;32.54
68127;BMP180;54931;52.098;21.006;2022-08-04T17:34:13;100509.40;;;31.66
68127;BMP180;54931;52.098;21.006;2022-08-04T17:36:41;100508.60;;;30.78
68127;BMP180;54931;52.098;21.006;2022-08-04T17:39:15;100509.20;;;30.14
68127;BMP180;54931;52.098;21.006;2022-08-04T17:41:47;100511.20;;;29.60
68127;BMP180;54931;52.098;21.006;2022-08-04T17:44:14;100509.40;;;29.16
68127;BMP180;54931;52.098;21.006;2022-08-04T17:46:44;100506.20;;;28.80
68127;BMP180;54931;52.098;21.006;2022-08-04T17:51:54;100510.00;;;28.10
68127;BMP180;54931;52.098;21.006;2022-08-04T17:57:01;100510.20;;;27.46
68127;BMP180;54931;52.098;21.006;2022-08-04T18:02:06;100509.60;;;26.80
68127;BMP180;54931;52.098;21.006;2022-08-04T18:07:18;100512.80;;;26.26
68127;BMP180;54931;52.098;21.006;2022-08-04T18:09:56;100513.00;;;25.92
68127;BMP180;54931;52.098;21.006;2022-08-04T18:12:33;100514.60;;;25.66
68127;BMP180;54931;52.098;21.006;2022-08-04T18:15:19;100510.40;;;25.40
68127;BMP180;54931;52.098;21.006;2022-08-04T18:17:48;100514.00;;;25.08
68127;BMP180;54931;52.098;21.006;2022-08-04T18:20:19;100515.60;;;24.80
68127;BMP180;54931;52.098;21.006;2022-08-04T18:22:48;100520.20;;;24.50
68127;BMP180;54931;52.098;21.006;2022-08-04T18:25:18;100520.40;;;24.30
68127;BMP180;54931;52.098;21.006;2022-08-04T18:27:52;100515.20;;;24.10
68127;BMP180;54931;52.098;21.006;2022-08-04T18:30:23;100514.60;;;23.80
68127;BMP180;54931;52.098;21.006;2022-08-04T18:32:51;100517.80;;;23.60
68127;BMP180;54931;52.098;21.006;2022-08-04T18:35:21;100517.60;;;23.40
68127;BMP180;54931;52.098;21.006;2022-08-04T18:37:49;100517.60;;;23.20
68127;BMP180;54931;52.098;21.006;2022-08-04T18:40:17;100517.60;;;23.00
68127;BMP180;54931;52.098;21.006;2022-08-04T18:42:44;100517.60;;;22.80
68127;BMP180;54931;52.098;21.006;2022-08-04T18:45:11;100519.20;;;22.60
68127;BMP180;54931;52.098;21.006;2022-08-04T18:47:39;100522.80;;;22.40
68127;BMP180;54931;52.098;21.006;2022-08-04T18:50:08;100522.80;;;22.20
68127;BMP180;54931;52.098;21.006;2022-08-04T18:52:36;100525.60;;;22.00
68127;BMP180;54931;52.098;21.006;2022-08-04T18:55:04;100526.00;;;21.90